createdAt,value
2018-07-11T00:01:03.169Z,13.68
2018-07-11T00:06:03.683Z,13.78
2018-07-11T00:11:03.267Z,13.88
2018-07-11T00:16:03.559Z,13.68
2018-07-11T00:21:03.081Z,13.78
2018-07-11T00:26:03.302Z,13.68
2018-07-11T00:31:04.009Z,13.68
2018-07-11T00:36:03.075Z,13.68
2018-07-11T00:41:03.683Z,13.68
2018-07-11T00:46:02.987Z,13.78
2018-07-11T00:51:03.810Z,13.68
2018-07-11T00:56:03.643Z,13.58
2018-07-11T01:01:02.969Z,13.48
2018-07-11T01:06:03.419Z,13.38
2018-07-11T01:11:03.045Z,13.28
2018-07-11T01:16:03.299Z,13.28
2018-07-11T01:21:03.798Z,13.28
2018-07-11T01:26:03.069Z,12.98
2018-07-11T01:31:03.350Z,12.98
2018-07-11T01:36:03.861Z,13.08
2018-07-11T01:41:08.888Z,13.18
2018-07-11T01:46:03.744Z,12.68
2018-07-11T01:51:03.258Z,12.68
2018-07-11T01:56:03.505Z,12.68
2018-07-11T02:01:03.802Z,12.48
2018-07-11T02:06:03.250Z,12.28
2018-07-11T02:11:03.876Z,12.48
2018-07-11T02:16:03.181Z,12.98
2018-07-11T02:21:03.677Z,12.78
2018-07-11T02:26:03.879Z,12.38
2018-07-11T02:31:03.226Z,12.48
2018-07-11T02:36:03.667Z,12.38
2018-07-11T02:41:03.274Z,13.08
2018-07-11T02:46:03.544Z,13.08
2018-07-11T02:51:03.061Z,12.48
2018-07-11T02:56:03.256Z,12.38
2018-07-11T03:01:03.533Z,12.48
2018-07-11T03:06:03.051Z,13.18
2018-07-11T03:11:03.619Z,13.28
2018-07-11T03:16:02.956Z,13.38
2018-07-11T03:21:03.433Z,13.08
2018-07-11T03:26:04.292Z,12.78
2018-07-11T03:31:02.980Z,12.58
2018-07-11T03:36:03.418Z,12.58
2018-07-11T03:41:03.020Z,12.48
2018-07-11T03:46:03.326Z,13.08
2018-07-11T03:51:03.758Z,13.58
2018-07-11T03:56:02.989Z,13.78
2018-07-11T04:01:03.259Z,13.08
2018-07-11T04:06:03.734Z,12.78
2018-07-11T04:11:03.381Z,12.58
2018-07-11T04:16:03.663Z,12.58
2018-07-11T04:21:03.158Z,12.98
2018-07-11T04:26:03.063Z,13.48
2018-07-11T04:31:03.370Z,13.48
2018-07-11T04:36:03.818Z,12.68
2018-07-11T04:41:03.396Z,13.28
2018-07-11T04:46:03.697Z,12.98
2018-07-11T04:51:03.247Z,12.78
2018-07-11T04:56:03.406Z,12.68
2018-07-11T05:01:03.697Z,12.88
2018-07-11T05:06:03.157Z,12.78
2018-07-11T05:11:03.927Z,12.98
2018-07-11T05:16:03.084Z,12.98
2018-07-11T05:21:03.549Z,12.98
2018-07-11T05:26:03.748Z,13.38
2018-07-11T05:31:03.062Z,13.68
2018-07-11T05:36:03.504Z,13.28
2018-07-11T05:41:03.059Z,13.38
2018-07-11T05:46:03.379Z,13.48
2018-07-11T05:51:03.818Z,13.48
2018-07-11T05:56:03.050Z,13.78
2018-07-11T06:01:03.328Z,13.78
2018-07-11T06:06:03.820Z,13.88
2018-07-11T06:11:03.407Z,13.98
2018-07-11T06:16:03.671Z,13.78
2018-07-11T06:21:03.157Z,13.78
2018-07-11T06:26:03.411Z,13.88
2018-07-11T06:31:03.694Z,13.98
2018-07-11T06:36:03.249Z,14.08
2018-07-11T06:41:03.708Z,14.18
2018-07-11T06:46:03.056Z,14.18
2018-07-11T06:51:03.476Z,14.28
2018-07-11T06:56:03.954Z,14.48
2018-07-11T07:01:03.017Z,14.58
2018-07-11T07:06:03.507Z,14.78
2018-07-11T07:11:03.074Z,15.08
2018-07-11T07:16:03.392Z,15.28
2018-07-11T07:21:09.312Z,15.48
2018-07-11T07:26:03.099Z,15.68
2018-07-11T07:31:03.405Z,15.88
2018-07-11T07:36:04.457Z,15.88
2018-07-11T07:41:03.433Z,16.08
2018-07-11T07:46:03.727Z,16.28
2018-07-11T07:51:03.209Z,16.28
2018-07-11T07:56:03.390Z,16.38
2018-07-11T08:01:03.703Z,16.68
2018-07-11T08:06:03.199Z,16.88
2018-07-11T08:11:04.175Z,16.98
2018-07-11T08:16:03.080Z,17.08
2018-07-11T08:21:03.558Z,17.18
2018-07-11T08:26:03.745Z,17.28
2018-07-11T08:31:03.080Z,17.38
2018-07-11T08:36:03.508Z,17.38
2018-07-11T08:41:03.117Z,17.38
2018-07-11T08:46:03.393Z,17.48
2018-07-11T08:51:03.912Z,17.48
2018-07-11T08:56:03.108Z,17.68
2018-07-11T09:01:03.373Z,17.88
2018-07-11T09:06:03.820Z,18.46
2018-07-11T09:11:03.400Z,18.91
2018-07-11T09:16:03.687Z,19.21
2018-07-11T09:21:03.209Z,19.03
2018-07-11T09:26:03.454Z,18.73
2018-07-11T09:31:03.727Z,18.91
2018-07-11T09:36:03.184Z,18.84
2018-07-11T09:41:03.787Z,18.71
2018-07-11T09:46:03.131Z,18.99
2018-07-11T09:51:03.551Z,19.24
2018-07-11T09:56:03.738Z,19.47
2018-07-11T10:01:03.070Z,19.55
2018-07-11T10:06:03.503Z,19.55
2018-07-11T10:11:03.083Z,19.67
2018-07-11T10:16:03.377Z,19.72
2018-07-11T10:21:03.888Z,19.70
2018-07-11T10:26:03.117Z,20.26
2018-07-11T10:31:03.442Z,20.16
2018-07-11T10:36:03.868Z,20.20
2018-07-11T10:41:03.434Z,20.23
2018-07-11T10:46:03.748Z,20.42
2018-07-11T10:51:03.255Z,20.46
2018-07-11T10:56:03.457Z,20.16
2018-07-11T11:01:06.897Z,19.75
2018-07-11T11:06:03.237Z,19.44
2018-07-11T11:11:03.832Z,19.51
2018-07-11T11:16:03.098Z,19.53
2018-07-11T11:21:03.620Z,19.63
2018-07-11T11:26:03.825Z,19.60
2018-07-11T11:31:03.112Z,19.78
2018-07-11T11:36:03.597Z,20.26
2018-07-11T11:41:03.171Z,19.84
2018-07-11T11:46:03.475Z,19.96
2018-07-11T11:51:03.973Z,20.02
2018-07-11T11:56:03.170Z,19.92
2018-07-11T12:01:03.502Z,19.97
2018-07-11T12:06:03.932Z,19.93
2018-07-11T12:11:03.545Z,19.67
2018-07-11T12:16:03.859Z,19.87
2018-07-11T12:21:03.468Z,19.38
2018-07-11T12:26:03.548Z,19.08
2018-07-11T12:31:03.841Z,19.18
2018-07-11T12:36:03.332Z,19.18
2018-07-11T12:41:03.884Z,19.28
2018-07-11T12:46:03.190Z,19.18
2018-07-11T12:51:03.675Z,19.18
2018-07-11T12:56:03.887Z,18.78
2018-07-11T13:01:03.174Z,18.48
2018-07-11T13:06:03.602Z,18.48
2018-07-11T13:11:03.207Z,18.18
2018-07-11T13:16:03.769Z,18.58
2018-07-11T13:21:03.971Z,18.68
2018-07-11T13:26:03.249Z,18.78
2018-07-11T13:31:03.513Z,18.88
2018-07-11T13:36:03.959Z,18.88
2018-07-11T13:41:03.603Z,18.88
2018-07-11T13:46:03.897Z,18.88
2018-07-11T13:51:03.350Z,18.88
2018-07-11T13:56:03.554Z,18.88
2018-07-11T14:01:03.882Z,18.78
2018-07-11T14:06:03.341Z,18.78
2018-07-11T14:11:03.902Z,18.18
2018-07-11T14:16:03.260Z,18.08
2018-07-11T14:21:03.730Z,17.78
2018-07-11T14:26:03.020Z,17.78
2018-07-11T14:31:03.335Z,18.18
2018-07-11T14:36:03.758Z,17.98
2018-07-11T14:41:03.321Z,18.08
2018-07-11T14:46:03.606Z,18.08
2018-07-11T14:51:03.095Z,18.28
2018-07-11T14:56:03.320Z,18.28
2018-07-11T15:01:03.607Z,18.38
2018-07-11T15:06:03.125Z,18.18
2018-07-11T15:11:03.654Z,18.18
2018-07-11T15:16:02.940Z,18.08
2018-07-11T15:21:03.426Z,18.28
2018-07-11T15:26:03.641Z,18.28
2018-07-11T15:31:02.953Z,18.08
2018-07-11T15:36:04.087Z,18.08
2018-07-11T15:41:03.033Z,18.38
2018-07-11T15:46:03.302Z,18.18
2018-07-11T15:51:04.070Z,18.08
2018-07-11T15:56:03.018Z,18.08
2018-07-11T16:01:03.304Z,18.18
2018-07-11T16:06:03.787Z,18.18
2018-07-11T16:11:03.608Z,18.28
2018-07-11T16:16:03.690Z,18.28
2018-07-11T16:21:03.237Z,18.18
2018-07-11T16:26:03.442Z,18.18
2018-07-11T16:31:03.720Z,18.18
2018-07-11T16:36:03.189Z,18.18
2018-07-11T16:41:03.756Z,18.28
2018-07-11T16:46:03.066Z,18.38
2018-07-11T16:51:03.496Z,18.28
2018-07-11T16:56:03.715Z,18.18
2018-07-11T17:01:03.035Z,18.18
2018-07-11T17:06:03.851Z,18.28
2018-07-11T17:11:03.058Z,18.28
2018-07-11T17:16:03.337Z,18.38
2018-07-11T17:21:03.822Z,18.28
2018-07-11T17:26:03.041Z,18.28
2018-07-11T17:31:03.312Z,18.28
2018-07-11T17:36:03.758Z,18.28
2018-07-11T17:41:03.370Z,18.28
2018-07-11T17:46:03.635Z,18.28
2018-07-11T17:51:03.124Z,18.28
2018-07-11T17:56:03.303Z,18.28
2018-07-11T18:01:03.636Z,18.38
2018-07-11T18:06:03.074Z,18.38
2018-07-11T18:11:03.684Z,18.18
2018-07-11T18:16:03.031Z,18.18
2018-07-11T18:21:03.437Z,18.18
2018-07-11T18:26:08.657Z,18.18
2018-07-11T18:31:02.918Z,18.38
2018-07-11T18:36:03.381Z,18.28
2018-07-11T18:41:02.983Z,18.38
2018-07-11T18:46:03.257Z,18.28
2018-07-11T18:51:03.766Z,18.28
2018-07-11T18:56:02.994Z,18.18
2018-07-11T19:01:03.270Z,18.18
2018-07-11T19:06:04.599Z,18.18
2018-07-11T19:11:03.289Z,17.98
2018-07-11T19:16:03.615Z,17.68
2018-07-11T19:21:03.148Z,17.68
2018-07-11T19:26:03.357Z,17.58
2018-07-11T19:31:03.649Z,17.58
2018-07-11T19:36:03.555Z,17.68
2018-07-11T19:41:03.680Z,17.58
2018-07-11T19:46:02.957Z,17.58
2018-07-11T19:51:03.419Z,17.48
2018-07-11T19:56:03.648Z,17.48
2018-07-11T20:01:03.351Z,17.38
2018-07-11T20:06:03.428Z,17.28
2018-07-11T20:11:03.032Z,17.28
2018-07-11T20:16:03.312Z,17.18
2018-07-11T20:21:03.818Z,16.98
2018-07-11T20:26:03.017Z,16.88
2018-07-11T20:31:03.338Z,16.98
2018-07-11T20:36:03.815Z,16.88
2018-07-11T20:41:03.392Z,16.88
2018-07-11T20:46:03.888Z,16.78
2018-07-11T20:51:03.164Z,16.88
2018-07-11T20:56:03.462Z,16.88
2018-07-11T21:01:03.639Z,16.88
2018-07-11T21:06:03.121Z,16.98
2018-07-11T21:11:03.726Z,16.98
2018-07-11T21:16:03.048Z,16.88
2018-07-11T21:21:03.530Z,16.78
2018-07-11T21:26:03.748Z,16.88
2018-07-11T21:31:03.056Z,16.98
2018-07-11T21:36:03.531Z,16.88
2018-07-11T21:41:03.150Z,17.18
2018-07-11T21:46:03.445Z,17.18
2018-07-11T21:51:03.948Z,17.18
2018-07-11T21:56:03.116Z,17.28
2018-07-11T22:01:03.422Z,17.38
2018-07-11T22:06:03.946Z,17.08
2018-07-11T22:11:03.537Z,16.98
2018-07-11T22:16:03.835Z,16.88
2018-07-11T22:21:03.323Z,16.88
2018-07-11T22:26:03.832Z,16.88
2018-07-11T22:31:03.831Z,16.88
2018-07-11T22:36:04.583Z,16.78
2018-07-11T22:41:03.903Z,16.68
2018-07-11T22:46:03.177Z,16.58
2018-07-11T22:51:04.305Z,16.58
2018-07-11T22:56:03.849Z,16.58
2018-07-11T23:01:03.494Z,16.68
2018-07-11T23:06:03.637Z,16.58
2018-07-11T23:11:03.678Z,16.68
2018-07-11T23:16:04.486Z,16.68
2018-07-11T23:21:03.063Z,16.68
2018-07-11T23:26:03.713Z,16.68
2018-07-11T23:31:04.821Z,16.68
2018-07-11T23:36:03.456Z,16.98
2018-07-11T23:41:04.045Z,17.08
2018-07-11T23:46:03.904Z,16.88
2018-07-11T23:51:03.390Z,16.68
2018-07-11T23:56:03.594Z,16.78
